Time;durP1;ratioP1;P1;durP2;ratioP2;P2;SDS_P1;SDS_P2;PMS_P1;PMS_P2;Temp;Humidity;BMP_temperature;BMP_pressure;BME280_temperature;BME280_humidity;BME280_pressure;Samples;Min_cycle;Max_cycle;Signal;HPM_P1;HPM_P2
2024/02/03 00:00:51;;;;;;;22.2;14.5;;;;;;;4.98;95.05957;949.291;;;;
2024/02/03 00:03:16;;;;;;;20.1;12.6;;;;;;;5.02;94.90918;949.259;;;;
2024/02/03 00:05:43;;;;;;;15.1;9.3;;;;;;;5.11;94.80566;949.2755;;;;
2024/02/03 00:08:06;;;;;;;54.7;29.5;;;;;;;5.15;93.89258;949.1551;;;;
2024/02/03 00:10:31;;;;;;;50.8;27.4;;;;;;;5.13;93.93164;949.2755;;;;
2024/02/03 00:12:57;;;;;;;22.7;13;;;;;;;5.11;94.07227;949.1624;;;;
2024/02/03 00:15:24;;;;;;;15.5;9;;;;;;;5.03;94.39453;949.1879;;;;
2024/02/03 00:17:47;;;;;;;23.6;12.1;;;;;;;5.05;94.20703;949.1367;;;;
2024/02/03 00:20:12;;;;;;;22.3;11.5;;;;;;;5.11;94.28711;949.0709;;;;
2024/02/03 00:22:37;;;;;;;12.1;7;;;;;;;5.12;93.97461;949.1868;;;;
2024/02/03 00:25:02;;;;;;;9;5.9;;;;;;;5.09;94.28125;948.9869;;;;
2024/02/03 00:27:27;;;;;;;7.7;5.2;;;;;;;5.09;94.05762;949.0875;;;;
2024/02/03 00:29:52;;;;;;;5.1;4.2;;;;;;;5.03;94.40625;949.0192;;;;
2024/02/03 00:32:18;;;;;;;5.8;4.2;;;;;;;5.01;94.67285;948.9409;;;;
2024/02/03 00:34:44;;;;;;;7.1;5.1;;;;;;;4.97;94.78906;949.027;;;;
2024/02/03 00:37:08;;;;;;;6.7;4.5;;;;;;;5.07;94.3125;948.8987;;;;
2024/02/03 00:39:33;;;;;;;7;4.9;;;;;;;5.02;94.57324;948.9288;;;;
2024/02/03 00:41:58;;;;;;;5.6;4.4;;;;;;;5.09;94.0332;948.8574;;;;
2024/02/03 00:44:23;;;;;;;5.3;3.7;;;;;;;5.02;94.44922;948.8994;;;;
2024/02/03 00:46:48;;;;;;;5.2;3.9;;;;;;;5.1;93.67773;948.8811;;;;
2024/02/03 00:49:13;;;;;;;5.3;3.9;;;;;;;5.03;94.0791;948.8131;;;;
2024/02/03 00:51:38;;;;;;;5.1;3.9;;;;;;;5.12;93.63477;948.915;;;;
2024/02/03 00:54:03;;;;;;;5;4.1;;;;;;;4.96;94.23047;948.8274;;;;
2024/02/03 00:56:30;;;;;;;5.1;4.1;;;;;;;4.91;94.27637;948.8837;;;;
2024/02/03 00:58:54;;;;;;;5.1;3.6;;;;;;;5.03;93.8877;948.9384;;;;
2024/02/03 01:01:19;;;;;;;4.8;3.6;;;;;;;4.98;93.44727;948.8237;;;;
2024/02/03 01:03:44;;;;;;;3.6;3;;;;;;;5.04;93.2793;948.8323;;;;
2024/02/03 01:06:10;;;;;;;3.4;2.8;;;;;;;5.14;92.61523;948.8625;;;;
2024/02/03 01:08:34;;;;;;;2.7;2.2;;;;;;;5;92.93262;948.7574;;;;
2024/02/03 01:11:00;;;;;;;2.7;2.2;;;;;;;5.01;92.86719;948.8198;;;;
2024/02/03 01:13:25;;;;;;;2.3;2;;;;;;;4.96;93.08105;948.7975;;;;
2024/02/03 01:15:50;;;;;;;2.8;2;;;;;;;4.93;92.90625;948.8386;;;;
2024/02/03 01:18:16;;;;;;;2.2;1.9;;;;;;;4.98;92.81641;948.8433;;;;
2024/02/03 01:20:40;;;;;;;2.8;1.9;;;;;;;4.95;92.83301;948.7088;;;;
2024/02/03 01:23:05;;;;;;;2;1.8;;;;;;;4.96;92.41602;948.787;;;;
2024/02/03 01:25:30;;;;;;;1.8;1.6;;;;;;;4.82;92.67969;948.8333;;;;
2024/02/03 01:27:55;;;;;;;2.2;1.9;;;;;;;4.85;92.75488;948.8533;;;;
2024/02/03 01:30:21;;;;;;;1.8;1.7;;;;;;;4.86;92.80176;948.8876;;;;
2024/02/03 01:32:47;;;;;;;2.3;2.1;;;;;;;4.74;93.18359;948.8961;;;;
2024/02/03 01:35:11;;;;;;;2.9;2.2;;;;;;;4.73;93.30176;948.9305;;;;
2024/02/03 01:37:36;;;;;;;2.5;2;;;;;;;4.72;93.32227;948.8385;;;;
2024/02/03 01:40:01;;;;;;;3.3;2.7;;;;;;;4.8;93.29492;948.8805;;;;
2024/02/03 01:42:26;;;;;;;3.1;2.3;;;;;;;4.78;93.33594;948.8644;;;;
2024/02/03 01:44:52;;;;;;;2.7;2.4;;;;;;;4.66;93.72754;948.9345;;;;
2024/02/03 01:47:16;;;;;;;4.5;2.5;;;;;;;4.65;93.80176;948.895;;;;
2024/02/03 01:49:41;;;;;;;4;2.4;;;;;;;4.63;93.78711;948.8586;;;;
2024/02/03 01:52:07;;;;;;;5.5;2.8;;;;;;;4.72;93.48242;948.6415;;;;
2024/02/03 01:54:32;;;;;;;4.3;3.1;;;;;;;4.65;93.76855;948.6584;;;;
2024/02/03 01:56:57;;;;;;;5.1;3.2;;;;;;;4.72;93.68457;948.7939;;;;
2024/02/03 01:59:24;;;;;;;5.2;3.6;;;;;;;4.67;93.34668;948.6523;;;;
2024/02/03 02:01:47;;;;;;;5.6;4.1;;;;;;;4.69;93.24902;948.5911;;;;
2024/02/03 02:04:12;;;;;;;5.9;4;;;;;;;4.63;93.30273;948.5999;;;;
2024/02/03 02:06:37;;;;;;;5.7;3.8;;;;;;;4.55;93.87012;948.4963;;;;
2024/02/03 02:09:02;;;;;;;4.8;3.8;;;;;;;4.47;94.08008;948.5958;;;;
2024/02/03 02:11:28;;;;;;;6.4;3.7;;;;;;;4.52;93.4707;948.5131;;;;
2024/02/03 02:13:53;;;;;;;6;3.6;;;;;;;4.54;93.23828;948.4863;;;;
2024/02/03 02:16:18;;;;;;;5.5;3.3;;;;;;;4.45;93.47754;948.5074;;;;
2024/02/03 02:18:43;;;;;;;4.6;2.9;;;;;;;4.46;93.33496;948.3975;;;;
2024/02/03 02:21:08;;;;;;;3.8;2.8;;;;;;;4.35;93.44434;948.4084;;;;
2024/02/03 02:23:33;;;;;;;4.3;2.6;;;;;;;4.3;93.90527;948.3798;;;;
2024/02/03 02:25:58;;;;;;;2.8;1.9;;;;;;;4.3;94.26465;948.3356;;;;
2024/02/03 02:28:24;;;;;;;2.7;2.1;;;;;;;4.31;94.03223;948.3995;;;;
2024/02/03 02:30:48;;;;;;;3;2.2;;;;;;;4.37;93.80859;948.2767;;;;
2024/02/03 02:33:13;;;;;;;2.6;2.1;;;;;;;4.31;93.54688;948.2864;;;;
2024/02/03 02:35:38;;;;;;;8.5;5;;;;;;;4.25;94.20996;948.2341;;;;
2024/02/03 02:38:03;;;;;;;8.5;6.4;;;;;;;4.33;94.08203;948.2444;;;;
2024/02/03 02:40:29;;;;;;;10.7;6.6;;;;;;;4.28;93.91406;948.1725;;;;
2024/02/03 02:42:54;;;;;;;8.1;5.5;;;;;;;4.26;94.17969;948.0596;;;;
2024/02/03 02:45:19;;;;;;;8.3;5.5;;;;;;;4.28;94.14844;948.125;;;;
2024/02/03 02:47:44;;;;;;;5.1;4.3;;;;;;;4.41;93.57227;948.0483;;;;
2024/02/03 02:50:09;;;;;;;4.4;3.5;;;;;;;4.31;93.61621;948.0201;;;;
2024/02/03 02:52:34;;;;;;;4.7;3.2;;;;;;;4.31;93.72656;947.9758;;;;
2024/02/03 02:54:59;;;;;;;3.8;2.9;;;;;;;4.21;94.10059;947.8395;;;;
2024/02/03 02:57:24;;;;;;;3.7;2.8;;;;;;;4.22;94.17969;947.8524;;;;
2024/02/03 02:59:50;;;;;;;3.8;2.7;;;;;;;4.19;94.32129;947.7935;;;;
2024/02/03 03:02:15;;;;;;;3.3;2.4;;;;;;;4.15;94.1875;947.8073;;;;
2024/02/03 03:04:40;;;;;;;2.8;2.4;;;;;;;4.15;94.35645;947.6761;;;;
2024/02/03 03:07:05;;;;;;;3.1;2.2;;;;;;;4.13;94.16113;947.6997;;;;
2024/02/03 03:09:30;;;;;;;3.4;2.5;;;;;;;4.12;94.15918;947.7877;;;;
2024/02/03 03:11:55;;;;;;;2.9;2.1;;;;;;;4.13;94.10547;947.7738;;;;
2024/02/03 03:14:20;;;;;;;2.4;1.9;;;;;;;4.09;93.99414;947.7662;;;;
2024/02/03 03:16:46;;;;;;;2.3;2.1;;;;;;;4.22;93.43652;947.7509;;;;
2024/02/03 03:19:11;;;;;;;2.4;1.9;;;;;;;4.14;93.74707;947.7349;;;;
2024/02/03 03:21:36;;;;;;;2.5;1.8;;;;;;;4.09;94.11816;947.6483;;;;
2024/02/03 03:24:01;;;;;;;1.9;1.5;;;;;;;4.06;94.29199;947.7222;;;;
2024/02/03 03:26:27;;;;;;;2.7;1.7;;;;;;;4.1;94.09766;947.7503;;;;
2024/02/03 03:28:52;;;;;;;2.2;1.7;;;;;;;4.16;94.02344;947.7533;;;;
2024/02/03 03:31:17;;;;;;;1.9;1.6;;;;;;;4.15;93.83887;947.7032;;;;
2024/02/03 03:33:42;;;;;;;1.5;1.3;;;;;;;4.22;93.59668;947.6965;;;;
2024/02/03 03:36:07;;;;;;;1.4;1.3;;;;;;;4.13;94.09375;947.6572;;;;
2024/02/03 03:38:34;;;;;;;1.6;1.4;;;;;;;4.16;93.92188;947.709;;;;
2024/02/03 03:40:57;;;;;;;2.4;1.7;;;;;;;4.22;93.60742;947.6682;;;;
2024/02/03 03:43:23;;;;;;;1.4;1.3;;;;;;;4.23;93.52148;947.6207;;;;
2024/02/03 03:45:48;;;;;;;2.6;1.5;;;;;;;4.16;93.41406;947.6451;;;;
2024/02/03 03:48:13;;;;;;;2.4;1.8;;;;;;;4.14;93.58984;947.6047;;;;
2024/02/03 03:50:38;;;;;;;1.5;1.4;;;;;;;4.07;93.43848;947.57;;;;
2024/02/03 03:53:03;;;;;;;1.9;1.5;;;;;;;4.07;93.79004;947.5316;;;;
2024/02/03 03:55:28;;;;;;;2.3;1.6;;;;;;;4.03;93.8584;947.5255;;;;
2024/02/03 03:57:53;;;;;;;1.8;1.5;;;;;;;4.02;94.21387;947.5698;;;;
2024/02/03 04:02:28;;;;;;;2.8;1.7;;;;;;;3.97;93.97949;947.6255;;;;
2024/02/03 04:04:54;;;;;;;2;1.5;;;;;;;3.98;94.28516;947.5873;;;;
2024/02/03 04:07:18;;;;;;;3.4;1.9;;;;;;;3.91;94.41699;947.5287;;;;
2024/02/03 04:09:48;;;;;;;3.1;2.1;;;;;;;3.89;94.58008;947.5859;;;;
2024/02/03 04:12:08;;;;;;;2.3;1.9;;;;;;;3.93;94.47754;947.5613;;;;
2024/02/03 04:14:34;;;;;;;2.4;2;;;;;;;4;94.07715;947.4238;;;;
2024/02/03 04:17:00;;;;;;;2.6;2;;;;;;;3.83;94.58789;947.519;;;;
2024/02/03 04:19:25;;;;;;;3.3;2.2;;;;;;;3.82;94.58789;947.4897;;;;
2024/02/03 04:21:49;;;;;;;4.3;2.6;;;;;;;3.89;94.46973;947.5421;;;;
2024/02/03 04:24:15;;;;;;;3.3;2.8;;;;;;;3.83;94.5;947.4815;;;;
2024/02/03 04:26:40;;;;;;;5.4;3.9;;;;;;;3.79;94.72656;947.4766;;;;
2024/02/03 04:29:05;;;;;;;5.3;4.2;;;;;;;3.82;94.59961;947.4709;;;;
2024/02/03 04:31:30;;;;;;;4.1;3.7;;;;;;;3.79;95.01855;947.5129;;;;
2024/02/03 04:33:55;;;;;;;5.5;4.2;;;;;;;3.77;94.91504;947.4343;;;;
2024/02/03 04:36:20;;;;;;;4.8;3.6;;;;;;;3.79;95.06348;947.4546;;;;
2024/02/03 04:38:45;;;;;;;6.1;3.7;;;;;;;3.74;95.12988;947.4892;;;;
2024/02/03 04:41:11;;;;;;;4.7;3.3;;;;;;;3.74;95.2334;947.4413;;;;
2024/02/03 04:43:36;;;;;;;4;3.6;;;;;;;3.83;94.77051;947.5927;;;;
2024/02/03 04:46:01;;;;;;;4.3;3.3;;;;;;;3.72;94.75488;947.5497;;;;
2024/02/03 04:48:26;;;;;;;5.4;3.3;;;;;;;3.69;94.69336;947.5421;;;;
2024/02/03 04:50:51;;;;;;;4.7;3.2;;;;;;;3.58;94.9043;947.4225;;;;
2024/02/03 04:53:16;;;;;;;4.6;3.5;;;;;;;3.57;95.14746;947.4472;;;;
2024/02/03 04:55:42;;;;;;;4.6;3;;;;;;;3.63;95.25195;947.4824;;;;
2024/02/03 04:58:06;;;;;;;3.3;3;;;;;;;3.67;94.98145;947.4085;;;;
2024/02/03 05:00:31;;;;;;;4.2;2.8;;;;;;;3.54;95.3457;947.4712;;;;
2024/02/03 05:02:57;;;;;;;3.9;3.2;;;;;;;3.63;95.36426;947.4238;;;;
2024/02/03 05:05:22;;;;;;;4.1;3.2;;;;;;;3.61;95.27246;947.4871;;;;
2024/02/03 05:07:48;;;;;;;3.8;3.4;;;;;;;3.56;95.14746;947.4164;;;;
2024/02/03 05:10:12;;;;;;;6;4.3;;;;;;;3.54;95.28809;947.4442;;;;
2024/02/03 05:12:37;;;;;;;6.4;3.7;;;;;;;3.63;95.28516;947.4147;;;;
2024/02/03 05:15:03;;;;;;;4.8;3.7;;;;;;;3.57;95.11621;947.5908;;;;
2024/02/03 05:17:28;;;;;;;4.8;4.3;;;;;;;3.52;95.40918;947.5435;;;;
2024/02/03 05:19:53;;;;;;;5.9;4.7;;;;;;;3.53;95.22949;947.6241;;;;
2024/02/03 05:22:18;;;;;;;5.7;3.3;;;;;;;3.57;94.86719;947.6536;;;;
2024/02/03 05:24:43;;;;;;;4.8;3.1;;;;;;;3.35;94.61621;947.6516;;;;
2024/02/03 05:27:08;;;;;;;4.3;2.9;;;;;;;3.41;94.81055;947.6426;;;;
2024/02/03 05:29:33;;;;;;;2.6;2.3;;;;;;;3.35;95.03223;947.6635;;;;
2024/02/03 05:31:58;;;;;;;2.2;2;;;;;;;3.26;95.11523;947.593;;;;
2024/02/03 05:34:23;;;;;;;2.4;1.7;;;;;;;3.3;95.04395;947.72;;;;
2024/02/03 05:36:49;;;;;;;3.1;1.9;;;;;;;3.31;95.25977;947.7489;;;;
2024/02/03 05:39:14;;;;;;;1.8;1.6;;;;;;;3.31;95.65234;947.7473;;;;
2024/02/03 05:41:39;;;;;;;2.3;1.8;;;;;;;3.38;95.75684;947.8411;;;;
2024/02/03 05:44:04;;;;;;;2.1;1.8;;;;;;;3.39;96.03027;947.8198;;;;
2024/02/03 05:46:29;;;;;;;1.8;1.7;;;;;;;3.46;95.97754;947.9211;;;;
2024/02/03 05:48:55;;;;;;;2.9;1.9;;;;;;;3.44;96.47852;947.8518;;;;
2024/02/03 05:51:19;;;;;;;2.3;2.1;;;;;;;3.55;96.41504;948.0591;;;;
2024/02/03 05:53:44;;;;;;;2.2;1.8;;;;;;;3.57;96.20605;947.9033;;;;
2024/02/03 05:56:10;;;;;;;2.5;2.3;;;;;;;3.57;96.17188;948.0372;;;;
2024/02/03 05:58:35;;;;;;;2.6;2.4;;;;;;;3.51;96.05664;947.9963;;;;
2024/02/03 06:01:00;;;;;;;2.8;2.3;;;;;;;3.5;96.33594;948.0598;;;;
2024/02/03 06:03:25;;;;;;;2.7;2.2;;;;;;;3.62;96.23828;948.088;;;;
2024/02/03 06:05:50;;;;;;;2.9;2.3;;;;;;;3.63;96.18457;948.0573;;;;
2024/02/03 06:08:15;;;;;;;5.8;3.7;;;;;;;3.7;96.19141;948.082;;;;
2024/02/03 06:10:40;;;;;;;4.5;4.1;;;;;;;3.71;96.22559;948.1817;;;;
2024/02/03 06:13:06;;;;;;;4.6;3.5;;;;;;;3.65;96.39258;948.1046;;;;
2024/02/03 06:15:30;;;;;;;6;3.8;;;;;;;3.69;96.51367;948.1036;;;;
2024/02/03 06:17:55;;;;;;;5.2;3.7;;;;;;;3.71;96.06836;948.1232;;;;
2024/02/03 06:20:21;;;;;;;8.1;5.4;;;;;;;3.73;96.42285;948.1897;;;;
2024/02/03 06:22:46;;;;;;;10.1;6.4;;;;;;;3.8;96.37109;948.2427;;;;
2024/02/03 06:25:11;;;;;;;12.5;8.6;;;;;;;3.75;96.91016;948.0679;;;;
2024/02/03 06:27:37;;;;;;;12.5;8.5;;;;;;;3.83;96.81543;948.2047;;;;
2024/02/03 06:30:02;;;;;;;13.2;9.6;;;;;;;3.77;97.3877;948.1961;;;;
2024/02/03 06:32:27;;;;;;;11.9;8.5;;;;;;;3.9;97.02148;948.1821;;;;
2024/02/03 06:34:52;;;;;;;15.3;9.1;;;;;;;3.84;97.17773;948.1808;;;;
2024/02/03 06:37:18;;;;;;;12.1;9;;;;;;;3.84;97.18652;948.2673;;;;
2024/02/03 06:39:43;;;;;;;10.1;7.5;;;;;;;3.88;97.14063;948.1392;;;;
2024/02/03 06:42:08;;;;;;;9.9;7.5;;;;;;;3.87;97.14844;948.2033;;;;
2024/02/03 06:44:33;;;;;;;8.4;7.1;;;;;;;3.82;97.16016;948.1379;;;;
2024/02/03 06:46:58;;;;;;;8.7;6.3;;;;;;;3.84;97.18652;948.2374;;;;
2024/02/03 06:49:24;;;;;;;11.2;6.6;;;;;;;3.9;97.49316;948.2955;;;;
2024/02/03 06:51:48;;;;;;;9.5;6.2;;;;;;;3.88;97.53418;948.2606;;;;
2024/02/03 06:54:14;;;;;;;8.9;6.2;;;;;;;3.93;97.58008;948.305;;;;
2024/02/03 06:56:39;;;;;;;10.2;8.1;;;;;;;3.98;97.2666;948.3368;;;;
2024/02/03 06:59:04;;;;;;;11.8;8.9;;;;;;;3.93;97.18652;948.3627;;;;
2024/02/03 07:01:29;;;;;;;9.6;8.3;;;;;;;3.92;97.04785;948.3334;;;;
2024/02/03 07:03:54;;;;;;;8.8;7.1;;;;;;;3.9;97.01172;948.4092;;;;
2024/02/03 07:06:19;;;;;;;9;7;;;;;;;4.01;96.84375;948.4903;;;;
2024/02/03 07:08:44;;;;;;;16.2;10;;;;;;;4.02;96.70117;948.4738;;;;
2024/02/03 07:11:11;;;;;;;15.3;10.1;;;;;;;4.07;96.37402;948.4968;;;;
2024/02/03 07:13:35;;;;;;;10.6;7.1;;;;;;;3.96;96.6084;948.5359;;;;
2024/02/03 07:16:00;;;;;;;8.8;6;;;;;;;3.97;96.86914;948.5182;;;;
2024/02/03 07:18:25;;;;;;;8.4;5.6;;;;;;;3.98;96.64844;948.5757;;;;
2024/02/03 07:20:50;;;;;;;9.4;5.9;;;;;;;4.11;96.39551;948.62;;;;
2024/02/03 07:23:15;;;;;;;7.6;5.3;;;;;;;4.25;95.58496;948.637;;;;
2024/02/03 07:25:40;;;;;;;7.8;5.5;;;;;;;4.12;96.11426;948.6299;;;;
2024/02/03 07:28:05;;;;;;;6;5.1;;;;;;;4.18;96.55664;948.7661;;;;
2024/02/03 07:30:31;;;;;;;7.4;5.6;;;;;;;4.31;96.24902;948.7385;;;;
2024/02/03 07:32:56;;;;;;;7.7;6.2;;;;;;;4.32;96.06055;948.7025;;;;
2024/02/03 07:35:20;;;;;;;8.9;5.7;;;;;;;4.39;95.8623;948.736;;;;
2024/02/03 07:37:45;;;;;;;7.8;5.7;;;;;;;4.41;95.6416;948.8533;;;;
2024/02/03 07:40:10;;;;;;;7.1;5.4;;;;;;;4.53;95.64355;948.8535;;;;
2024/02/03 07:42:36;;;;;;;8.5;6.5;;;;;;;4.62;95.77832;948.654;;;;
2024/02/03 07:45:01;;;;;;;9.7;6.9;;;;;;;4.75;94.94141;948.7352;;;;
2024/02/03 07:47:26;;;;;;;9;6.6;;;;;;;4.76;94.60547;948.6608;;;;
2024/02/03 07:49:51;;;;;;;7.9;6.7;;;;;;;4.81;95.33887;948.613;;;;
2024/02/03 07:52:18;;;;;;;9.8;7.2;;;;;;;5.11;95.49316;948.6594;;;;
2024/02/03 07:54:41;;;;;;;14.3;10.1;;;;;;;5.23;93.90918;948.5848;;;;
2024/02/03 07:57:07;;;;;;;15.4;11.2;;;;;;;5.24;93.29004;948.6188;;;;
2024/02/03 07:59:32;;;;;;;16.6;10.8;;;;;;;5.5;93.35645;948.5651;;;;
2024/02/03 08:01:57;;;;;;;15;10;;;;;;;5.6;92.31934;948.531;;;;
2024/02/03 08:04:22;;;;;;;12;9.4;;;;;;;5.94;90.15527;948.5363;;;;
2024/02/03 08:06:47;;;;;;;14.2;9.3;;;;;;;6.37;91.78223;948.4403;;;;
2024/02/03 08:09:12;;;;;;;13.2;9.3;;;;;;;6.8;88.50195;948.4917;;;;
2024/02/03 08:11:37;;;;;;;11.9;8.4;;;;;;;6.77;86.97852;948.4864;;;;
2024/02/03 08:14:02;;;;;;;13.9;10;;;;;;;6.72;87.64941;948.4492;;;;
2024/02/03 08:16:27;;;;;;;15.4;10;;;;;;;7.3;86.94043;948.4022;;;;
2024/02/03 08:18:52;;;;;;;14;10.2;;;;;;;8.07;84.68945;948.4146;;;;
2024/02/03 08:21:18;;;;;;;18.5;11.1;;;;;;;8.08;82.6709;948.423;;;;
2024/02/03 08:23:43;;;;;;;23.8;15.3;;;;;;;8.01;81.9209;948.3356;;;;
2024/02/03 08:26:08;;;;;;;22.3;14.9;;;;;;;7.86;82.70801;948.4006;;;;
2024/02/03 08:28:33;;;;;;;19.2;12.2;;;;;;;8.01;83.85059;948.4689;;;;
2024/02/03 08:30:58;;;;;;;21.6;12.7;;;;;;;8.52;82.95996;948.3493;;;;
2024/02/03 08:33:25;;;;;;;16;10.2;;;;;;;8.97;80.87402;948.3762;;;;
2024/02/03 08:36:01;;;;;;;15.4;9.4;;;;;;;9.25;78.69531;948.256;;;;
2024/02/03 08:38:14;;;;;;;10.5;7.6;;;;;;;9.57;79.33398;948.2977;;;;
2024/02/03 08:40:39;;;;;;;12.7;7.7;;;;;;;10.04;76.14746;948.2545;;;;
2024/02/03 08:43:04;;;;;;;11.9;7.6;;;;;;;10.3;75.66992;948.2924;;;;
2024/02/03 08:45:30;;;;;;;12.2;7.2;;;;;;;10.99;73.65332;948.0994;;;;
2024/02/03 08:47:55;;;;;;;8.3;6.2;;;;;;;11.59;71.53516;948.1528;;;;
2024/02/03 08:50:20;;;;;;;8.9;6.6;;;;;;;12.04;69.16699;948.1567;;;;
2024/02/03 08:52:45;;;;;;;8.3;5.9;;;;;;;11.91;68.94043;948.0565;;;;
2024/02/03 08:55:10;;;;;;;10.5;6.6;;;;;;;12.07;69.36719;948.0648;;;;
2024/02/03 08:57:35;;;;;;;9.8;6.4;;;;;;;12.07;67.76172;948.0878;;;;
2024/02/03 09:00:00;;;;;;;7.1;5.1;;;;;;;12.48;68.33105;948.0817;;;;
2024/02/03 09:02:25;;;;;;;6;4.2;;;;;;;13.06;65.48242;947.9755;;;;
2024/02/03 09:04:51;;;;;;;4.8;3.4;;;;;;;13.57;64.9502;947.9478;;;;
2024/02/03 09:07:16;;;;;;;6;3.3;;;;;;;13.78;64.02734;948.0012;;;;
2024/02/03 09:09:41;;;;;;;4.8;2.6;;;;;;;13.88;62.36133;947.8691;;;;
2024/02/03 09:12:06;;;;;;;3.1;2.3;;;;;;;14.04;61.64746;947.9169;;;;
2024/02/03 09:14:31;;;;;;;3.5;2.7;;;;;;;14.33;62.63281;947.9468;;;;
2024/02/03 09:16:56;;;;;;;5.7;4.3;;;;;;;14.43;61.89941;947.8619;;;;
2024/02/03 09:19:22;;;;;;;9.4;5.8;;;;;;;14.54;60.7041;947.8462;;;;
2024/02/03 09:21:47;;;;;;;8.9;6.1;;;;;;;14.86;61.15234;947.7517;;;;
2024/02/03 09:24:12;;;;;;;8.6;4.7;;;;;;;15.23;57.88086;947.7664;;;;
2024/02/03 09:26:37;;;;;;;4.9;3.5;;;;;;;15.42;57.58398;947.7662;;;;
2024/02/03 09:29:02;;;;;;;3.4;3.1;;;;;;;15.43;59.62793;947.7904;;;;
2024/02/03 09:31:27;;;;;;;4.6;2.9;;;;;;;15.72;57.35742;947.8208;;;;
2024/02/03 09:33:52;;;;;;;6.1;3.5;;;;;;;16.32;56.00098;947.7829;;;;
2024/02/03 09:36:17;;;;;;;6;3.1;;;;;;;16.42;55.80469;947.7928;;;;
2024/02/03 09:38:43;;;;;;;4.3;2.8;;;;;;;16.45;56.17871;947.7498;;;;
2024/02/03 09:41:07;;;;;;;3.2;2.4;;;;;;;16.86;53.32324;947.6956;;;;
2024/02/03 09:43:33;;;;;;;2.4;2.2;;;;;;;16.86;55.06055;947.7625;;;;
2024/02/03 09:45:59;;;;;;;3.2;2.3;;;;;;;17.01;54.97656;947.6747;;;;
2024/02/03 09:48:23;;;;;;;1.7;1.5;;;;;;;17.16;53.3125;947.6573;;;;
2024/02/03 09:50:49;;;;;;;1.6;1.3;;;;;;;17.15;52.81445;947.6677;;;;
2024/02/03 09:53:14;;;;;;;1.3;1;;;;;;;17.36;49.67285;947.5695;;;;
2024/02/03 09:55:40;;;;;;;1.7;1.3;;;;;;;17.48;52.2041;947.6018;;;;
2024/02/03 09:58:04;;;;;;;2;1.2;;;;;;;17.62;50.60742;947.5338;;;;
2024/02/03 10:00:29;;;;;;;2;1.3;;;;;;;18.25;48.19336;947.5287;;;;
2024/02/03 10:02:54;;;;;;;1.2;1.1;;;;;;;18.19;51.25586;947.4867;;;;
2024/02/03 10:05:20;;;;;;;1.5;1.2;;;;;;;18.52;47.38477;947.4436;;;;
2024/02/03 10:07:45;;;;;;;1.1;1;;;;;;;18.6;48.29004;947.4366;;;;
2024/02/03 10:10:10;;;;;;;1.2;1.1;;;;;;;18.66;49.4248;947.4255;;;;
2024/02/03 10:12:35;;;;;;;2.8;1.3;;;;;;;18.64;48.1543;947.2933;;;;
2024/02/03 10:15:01;;;;;;;2.1;1.4;;;;;;;18.83;47.39551;947.2494;;;;
2024/02/03 10:17:25;;;;;;;3;1.3;;;;;;;18.81;47.51074;947.1863;;;;
2024/02/03 10:19:51;;;;;;;6.6;1.4;;;;;;;19;46.31934;947.1682;;;;
2024/02/03 10:22:16;;;;;;;2.6;1.2;;;;;;;19.18;47.21289;947.153;;;;
2024/02/03 10:24:41;;;;;;;3.2;1;;;;;;;19.29;45.68652;947.0795;;;;
2024/02/03 10:27:06;;;;;;;1.6;0.8;;;;;;;19.61;44.55371;947.0881;;;;
2024/02/03 10:29:32;;;;;;;3;0.6;;;;;;;19.77;45.35059;946.8965;;;;
2024/02/03 10:31:56;;;;;;;1.9;0.7;;;;;;;19.64;44.80176;947.0452;;;;
2024/02/03 10:34:21;;;;;;;1.2;0.6;;;;;;;19.89;44.36035;946.9657;;;;
2024/02/03 10:36:46;;;;;;;1.6;0.7;;;;;;;20.01;43.81152;946.9035;;;;
2024/02/03 10:39:12;;;;;;;1.6;0.7;;;;;;;20.14;42.72754;946.8365;;;;
2024/02/03 10:41:38;;;;;;;1.9;0.8;;;;;;;20.49;42.94922;946.834;;;;
2024/02/03 10:44:03;;;;;;;3.7;1.3;;;;;;;19.88;44.86035;946.7969;;;;
2024/02/03 10:46:27;;;;;;;2.4;0.9;;;;;;;20.25;44.0459;946.7455;;;;
2024/02/03 10:48:52;;;;;;;5.7;1.1;;;;;;;19.97;45.69727;946.8839;;;;
2024/02/03 10:51:17;;;;;;;3.4;1.1;;;;;;;20.54;43.58398;946.7394;;;;
2024/02/03 10:53:43;;;;;;;3.1;1.5;;;;;;;20.14;45.2959;946.7961;;;;
2024/02/03 10:56:08;;;;;;;2.2;1;;;;;;;20;46.56543;946.6506;;;;
2024/02/03 10:58:33;;;;;;;3.8;1;;;;;;;20.23;43.74121;946.6027;;;;
2024/02/03 11:00:59;;;;;;;1.7;0.9;;;;;;;20.61;42.87891;946.6007;;;;
2024/02/03 11:03:23;;;;;;;2;1;;;;;;;20.55;44.28613;946.4438;;;;
2024/02/03 11:05:48;;;;;;;1.4;1.2;;;;;;;20.57;44.49805;946.4865;;;;
2024/02/03 11:08:13;;;;;;;2;1.4;;;;;;;19.99;45.62988;946.5011;;;;
2024/02/03 11:10:40;;;;;;;1.1;1.1;;;;;;;20.02;46.2168;946.4871;;;;
2024/02/03 11:13:03;;;;;;;1.6;1.2;;;;;;;19.95;46.79297;946.3586;;;;
2024/02/03 11:15:28;;;;;;;1.4;1.2;;;;;;;19.79;47.27734;946.4308;;;;
2024/02/03 11:17:54;;;;;;;2.6;1.2;;;;;;;19.78;47.95313;946.3743;;;;
2024/02/03 11:20:18;;;;;;;2.7;1.3;;;;;;;19.86;46.86426;946.4238;;;;
2024/02/03 11:22:44;;;;;;;1.5;1.2;;;;;;;19.82;46.86035;946.2841;;;;
2024/02/03 11:25:09;;;;;;;1.8;1;;;;;;;19.45;47.22852;946.2236;;;;
2024/02/03 11:27:34;;;;;;;1.1;1;;;;;;;19.16;47.08105;946.3611;;;;
2024/02/03 11:29:59;;;;;;;2.4;0.9;;;;;;;18.74;45.96582;946.359;;;;
2024/02/03 11:32:24;;;;;;;1;0.9;;;;;;;17.86;47.87207;946.2906;;;;
2024/02/03 11:34:49;;;;;;;2.4;1;;;;;;;18.1;49.10645;946.3998;;;;
2024/02/03 11:37:16;;;;;;;3.2;1.1;;;;;;;18.05;48.94922;946.33;;;;
2024/02/03 11:39:40;;;;;;;1.1;0.9;;;;;;;17.81;48.93457;946.3438;;;;
2024/02/03 11:42:05;;;;;;;0.9;0.8;;;;;;;17.86;49.14941;946.2858;;;;
2024/02/03 11:44:30;;;;;;;4.4;0.9;;;;;;;17.79;48.22461;946.3414;;;;
2024/02/03 11:46:55;;;;;;;0.6;0.6;;;;;;;17.78;48.38574;946.236;;;;
2024/02/03 11:49:20;;;;;;;2.9;0.6;;;;;;;17.41;48.71582;946.2304;;;;
2024/02/03 11:51:45;;;;;;;0.4;0.4;;;;;;;17.34;47.94336;946.0318;;;;
2024/02/03 11:54:10;;;;;;;2;0.6;;;;;;;17.16;49.44141;946.1779;;;;
2024/02/03 11:56:36;;;;;;;5;0.9;;;;;;;17.07;51.64551;946.1548;;;;
2024/02/03 11:59:01;;;;;;;2.1;0.8;;;;;;;16.58;49.20313;946.1714;;;;
2024/02/03 12:01:27;;;;;;;1.9;0.9;;;;;;;16.33;50.93359;946.0789;;;;
2024/02/03 12:03:51;;;;;;;2.4;0.6;;;;;;;16.48;50.61523;946.2327;;;;
2024/02/03 12:06:16;;;;;;;0.9;0.7;;;;;;;16.03;51.95117;946.1339;;;;
2024/02/03 12:08:41;;;;;;;0.8;0.6;;;;;;;16.08;51.25098;946.0496;;;;
2024/02/03 12:11:07;;;;;;;1.6;0.7;;;;;;;15.84;52.05566;946.0168;;;;
2024/02/03 12:13:31;;;;;;;1;0.5;;;;;;;15.6;52.33887;945.9651;;;;
2024/02/03 12:15:56;;;;;;;1.1;0.6;;;;;;;15.62;53.45117;946.0266;;;;
2024/02/03 12:18:21;;;;;;;1.2;0.8;;;;;;;15.73;51.37207;946.1144;;;;
2024/02/03 12:20:47;;;;;;;0.6;0.6;;;;;;;15.77;51.50391;945.863;;;;
2024/02/03 12:23:12;;;;;;;1.6;0.5;;;;;;;15.74;50.99219;945.867;;;;
2024/02/03 12:25:37;;;;;;;2.9;0.5;;;;;;;15.71;51.49707;945.9055;;;;
2024/02/03 12:28:02;;;;;;;1;0.6;;;;;;;15.54;52.91016;945.8114;;;;
2024/02/03 12:30:30;;;;;;;1.2;0.6;;;;;;;15.55;52.11426;945.8716;;;;
2024/02/03 12:32:52;;;;;;;1.9;0.6;;;;;;;15.46;52.46094;945.7999;;;;
2024/02/03 12:35:18;;;;;;;1;0.5;;;;;;;15.63;52.3418;945.7617;;;;
2024/02/03 12:37:43;;;;;;;0.8;0.5;;;;;;;15.48;52.03613;945.7494;;;;
2024/02/03 12:40:09;;;;;;;0.9;0.7;;;;;;;15.54;52.19238;945.7648;;;;
2024/02/03 12:42:33;;;;;;;0.5;0.4;;;;;;;15.48;51.79297;945.7068;;;;
2024/02/03 12:45:00;;;;;;;2;0.9;;;;;;;15.54;51.38477;945.6757;;;;
2024/02/03 12:47:23;;;;;;;1.2;0.7;;;;;;;15.63;51.92578;945.6155;;;;
2024/02/03 12:49:48;;;;;;;2.9;0.7;;;;;;;15.68;51.64355;945.4991;;;;
2024/02/03 12:52:13;;;;;;;1;0.5;;;;;;;15.54;52.36719;945.4694;;;;
2024/02/03 12:54:38;;;;;;;0.5;0.4;;;;;;;15.61;53.1377;945.486;;;;
2024/02/03 12:57:04;;;;;;;0.4;0.3;;;;;;;15.79;51.78516;945.3716;;;;
2024/02/03 12:59:29;;;;;;;1;0.5;;;;;;;15.73;50.93262;945.4639;;;;
2024/02/03 13:01:54;;;;;;;0.6;0.4;;;;;;;15.45;51.77734;945.4203;;;;
2024/02/03 13:04:19;;;;;;;0.5;0.5;;;;;;;15.51;51.25391;945.3971;;;;
2024/02/03 13:06:45;;;;;;;0.4;0.4;;;;;;;15.47;51.11035;945.32;;;;
2024/02/03 13:09:11;;;;;;;0.6;0.4;;;;;;;15.65;51.02832;945.3401;;;;
2024/02/03 13:11:35;;;;;;;0.8;0.4;;;;;;;15.58;50.81055;945.3611;;;;
2024/02/03 13:14:00;;;;;;;0.4;0.4;;;;;;;15.55;51.47852;945.3707;;;;
2024/02/03 13:16:26;;;;;;;0.5;0.5;;;;;;;15.73;51.28027;945.3378;;;;
2024/02/03 13:18:51;;;;;;;0.7;0.4;;;;;;;15.9;50.72168;945.3293;;;;
2024/02/03 13:21:16;;;;;;;0.4;0.4;;;;;;;16.05;51.01758;945.2759;;;;
2024/02/03 13:23:41;;;;;;;0.4;0.3;;;;;;;16.14;50.75;945.2782;;;;
2024/02/03 13:26:06;;;;;;;0.4;0.4;;;;;;;16.13;50.65625;945.296;;;;
2024/02/03 13:28:31;;;;;;;0.9;0.5;;;;;;;16.2;51.16211;945.2275;;;;
2024/02/03 13:30:56;;;;;;;0.6;0.4;;;;;;;16.17;51.66602;945.1922;;;;
2024/02/03 13:33:21;;;;;;;0.6;0.5;;;;;;;16.24;50.95801;945.3098;;;;
2024/02/03 13:35:46;;;;;;;1.1;0.3;;;;;;;16.19;49.14844;945.4292;;;;
2024/02/03 13:38:12;;;;;;;0.3;0.3;;;;;;;16.25;50.12695;945.4551;;;;
2024/02/03 13:40:37;;;;;;;0.2;0.2;;;;;;;16.45;49.70898;945.4327;;;;
2024/02/03 13:43:02;;;;;;;0.8;0.4;;;;;;;16.47;50.27832;945.3314;;;;
2024/02/03 13:45:29;;;;;;;1.1;0.4;;;;;;;16.42;50.75879;945.3516;;;;
2024/02/03 13:47:52;;;;;;;0.9;0.6;;;;;;;16.34;49.90527;945.4534;;;;
2024/02/03 13:50:17;;;;;;;0.4;0.3;;;;;;;16.4;50.64063;945.5168;;;;
2024/02/03 13:52:42;;;;;;;0.4;0.4;;;;;;;16.4;49.56348;945.4775;;;;
2024/02/03 13:55:07;;;;;;;0.3;0.3;;;;;;;16.57;49.59473;945.4052;;;;
2024/02/03 13:57:32;;;;;;;1;0.2;;;;;;;16.39;48.20898;945.3505;;;;
2024/02/03 13:59:57;;;;;;;0.6;0.5;;;;;;;16.34;49.41895;945.2936;;;;
2024/02/03 14:02:23;;;;;;;0.3;0.3;;;;;;;16.34;48.42383;945.46;;;;
2024/02/03 14:04:48;;;;;;;0.5;0.5;;;;;;;16.53;47.56445;945.5026;;;;
2024/02/03 14:07:13;;;;;;;1.3;0.5;;;;;;;16.51;46.48535;945.3466;;;;
2024/02/03 14:09:38;;;;;;;0.4;0.3;;;;;;;16.5;46.45117;945.345;;;;
2024/02/03 14:12:04;;;;;;;0.2;0.2;;;;;;;16.58;45.97363;945.361;;;;
2024/02/03 14:14:28;;;;;;;0.4;0.4;;;;;;;16.67;45.33398;945.4796;;;;
2024/02/03 14:16:53;;;;;;;1.4;0.6;;;;;;;16.73;44.86523;945.4367;;;;
2024/02/03 14:19:18;;;;;;;0.5;0.4;;;;;;;16.65;44.66113;945.3997;;;;